createdAt,value
2023-01-17T00:01:47.588Z,4.40
2023-01-17T00:04:32.768Z,4.40
2023-01-17T00:07:18.256Z,4.40
2023-01-17T00:09:54.080Z,4.40
2023-01-17T00:12:21.093Z,4.40
2023-01-17T00:14:48.495Z,4.40
2023-01-17T00:17:15.342Z,4.30
2023-01-17T00:20:00.713Z,4.30
2023-01-17T00:22:47.862Z,4.40
2023-01-17T00:25:38.748Z,4.40
2023-01-17T00:28:06.029Z,4.30
2023-01-17T00:30:33.322Z,4.30
2023-01-17T00:33:00.164Z,4.40
2023-01-17T00:35:28.724Z,4.30
2023-01-17T00:38:05.611Z,4.40
2023-01-17T00:40:34.111Z,4.30
2023-01-17T00:43:19.664Z,4.30
2023-01-17T00:46:05.457Z,4.30
2023-01-17T00:48:51.685Z,4.30
2023-01-17T00:51:37.951Z,4.20
2023-01-17T00:54:23.595Z,4.20
2023-01-17T00:57:09.022Z,4.20
2023-01-17T00:59:54.286Z,4.20
2023-01-17T01:02:40.025Z,4.20
2023-01-17T01:05:26.286Z,4.20
2023-01-17T01:08:11.638Z,4.20
2023-01-17T01:10:56.843Z,4.30
2023-01-17T01:13:47.613Z,4.30
2023-01-17T01:16:33.674Z,4.30
2023-01-17T01:19:19.421Z,4.30
2023-01-17T01:25:07.947Z,4.30
2023-01-17T01:27:53.124Z,4.20
2023-01-17T01:30:38.272Z,4.20
2023-01-17T01:33:19.540Z,4.10
2023-01-17T01:35:55.752Z,4.00
2023-01-17T01:38:24.024Z,4.00
2023-01-17T01:40:53.494Z,4.00
2023-01-17T01:43:40.250Z,3.90
2023-01-17T01:46:09.375Z,3.90
2023-01-17T01:48:46.345Z,3.80
2023-01-17T01:51:19.345Z,3.70
2023-01-17T01:53:51.133Z,3.70
2023-01-17T01:56:19.956Z,3.70
2023-01-17T01:58:51.325Z,3.70
2023-01-17T02:01:18.491Z,3.70
2023-01-17T02:03:47.127Z,3.70
2023-01-17T02:06:24.293Z,3.70
2023-01-17T02:08:51.804Z,3.60
2023-01-17T02:11:18.892Z,3.60
2023-01-17T02:13:45.490Z,3.60
2023-01-17T02:16:24.580Z,3.60
2023-01-17T02:18:59.492Z,3.60
2023-01-17T02:21:51.197Z,3.50
2023-01-17T02:25:09.700Z,3.40
2023-01-17T02:28:12.533Z,3.40
2023-01-17T02:31:08.824Z,3.40
2023-01-17T02:33:51.575Z,3.40
2023-01-17T02:36:43.444Z,3.30
2023-01-17T02:39:19.595Z,3.30
2023-01-17T02:41:54.535Z,3.20
2023-01-17T02:44:21.799Z,3.20
2023-01-17T02:46:54.245Z,3.20
2023-01-17T02:49:24.792Z,3.20
2023-01-17T02:52:05.719Z,3.10
2023-01-17T02:55:05.351Z,3.10
2023-01-17T02:57:42.065Z,3.10
2023-01-17T03:00:23.655Z,3.10
2023-01-17T03:03:21.050Z,3.00
2023-01-17T03:05:59.337Z,2.90
2023-01-17T03:08:27.033Z,2.80
2023-01-17T03:10:53.785Z,2.80
2023-01-17T03:13:20.496Z,2.70
2023-01-17T03:15:47.907Z,2.70
2023-01-17T03:18:16.181Z,2.70
2023-01-17T03:20:42.989Z,2.80
2023-01-17T03:23:09.675Z,2.70
2023-01-17T03:25:36.316Z,2.70
2023-01-17T03:28:03.081Z,2.70
2023-01-17T03:30:29.718Z,2.70
2023-01-17T03:32:56.319Z,2.70
2023-01-17T03:35:23.070Z,2.70
2023-01-17T03:37:49.849Z,2.70
2023-01-17T03:40:16.796Z,2.70
2023-01-17T03:42:43.713Z,2.70
2023-01-17T03:45:10.780Z,2.80
2023-01-17T03:47:37.372Z,2.70
2023-01-17T03:50:05.637Z,2.70
2023-01-17T03:52:32.505Z,2.70
2023-01-17T03:54:59.655Z,2.60
2023-01-17T03:57:26.236Z,2.60
2023-01-17T03:59:52.812Z,2.50
2023-01-17T04:02:19.433Z,2.50
2023-01-17T04:04:46.041Z,2.50
2023-01-17T04:07:12.611Z,2.50
2023-01-17T04:09:39.280Z,2.60
2023-01-17T04:12:05.977Z,2.50
2023-01-17T04:14:32.900Z,2.50
2023-01-17T04:16:59.945Z,2.50
2023-01-17T04:19:26.694Z,2.50
2023-01-17T04:21:53.284Z,2.40
2023-01-17T04:24:19.832Z,2.40
2023-01-17T04:26:46.395Z,2.40
2023-01-17T04:29:13.005Z,2.40
2023-01-17T04:31:39.584Z,2.40
2023-01-17T04:34:06.192Z,2.30
2023-01-17T04:36:32.776Z,2.30
2023-01-17T04:38:59.346Z,2.20
2023-01-17T04:41:25.937Z,2.10
2023-01-17T04:43:52.601Z,2.10
2023-01-17T04:46:19.232Z,2.10
2023-01-17T04:48:45.842Z,2.10
2023-01-17T04:51:12.557Z,2.10
2023-01-17T04:53:39.181Z,2.20
2023-01-17T04:56:06.018Z,2.20
2023-01-17T04:58:33.331Z,2.20
2023-01-17T05:01:04.878Z,2.30
2023-01-17T05:03:32.281Z,2.30
2023-01-17T05:05:59.116Z,2.30
2023-01-17T05:08:25.848Z,2.40
2023-01-17T05:10:52.804Z,2.30
2023-01-17T05:13:19.834Z,2.30
2023-01-17T05:15:46.902Z,2.30
2023-01-17T05:18:15.214Z,2.30
2023-01-17T05:20:42.116Z,2.40
2023-01-17T05:23:09.280Z,2.50
2023-01-17T05:25:36.191Z,2.50
2023-01-17T05:28:03.473Z,2.40
2023-01-17T05:30:32.974Z,2.50
2023-01-17T05:32:59.849Z,2.50
2023-01-17T05:35:34.875Z,2.50
2023-01-17T05:38:02.132Z,2.40
2023-01-17T05:40:31.044Z,2.40
2023-01-17T05:42:59.270Z,2.40
2023-01-17T05:45:27.903Z,2.40
2023-01-17T05:47:55.867Z,2.40
2023-01-17T05:50:26.302Z,2.30
2023-01-17T05:53:14.177Z,2.30
2023-01-17T05:55:42.056Z,2.30
2023-01-17T05:58:18.090Z,2.30
2023-01-17T06:00:45.519Z,2.30
2023-01-17T06:03:12.613Z,2.40
2023-01-17T06:05:39.924Z,2.40
2023-01-17T06:08:06.845Z,2.50
2023-01-17T06:10:33.875Z,2.50
2023-01-17T06:13:05.097Z,2.50
2023-01-17T06:15:32.241Z,2.50
2023-01-17T06:18:03.170Z,2.40
2023-01-17T06:20:29.719Z,2.40
2023-01-17T06:22:56.356Z,2.40
2023-01-17T06:25:22.975Z,2.40
2023-01-17T06:27:50.306Z,2.40
2023-01-17T06:30:17.161Z,2.40
2023-01-17T06:32:43.757Z,2.40
2023-01-17T06:35:10.331Z,2.50
2023-01-17T06:37:36.876Z,2.50
2023-01-17T06:40:03.719Z,2.50
2023-01-17T06:42:31.113Z,2.60
2023-01-17T06:44:57.711Z,2.50
2023-01-17T06:47:24.309Z,2.50
2023-01-17T06:49:51.064Z,2.50
2023-01-17T06:52:17.662Z,2.50
2023-01-17T06:54:44.214Z,2.50
2023-01-17T06:57:10.780Z,2.40
2023-01-17T06:59:37.396Z,2.40
2023-01-17T07:02:04.037Z,2.40
2023-01-17T07:04:30.653Z,2.50
2023-01-17T07:06:57.192Z,2.50
2023-01-17T07:09:23.885Z,2.50
2023-01-17T07:11:51.786Z,2.50
2023-01-17T07:14:18.425Z,2.60
2023-01-17T07:16:46.043Z,2.60
2023-01-17T07:19:13.020Z,2.60
2023-01-17T07:21:40.349Z,2.50
2023-01-17T07:24:07.545Z,2.50
2023-01-17T07:26:34.513Z,2.50
2023-01-17T07:29:01.145Z,2.40
2023-01-17T07:31:27.840Z,2.40
2023-01-17T07:33:54.455Z,2.40
2023-01-17T07:36:21.128Z,2.40
2023-01-17T07:38:47.738Z,2.50
2023-01-17T07:41:17.536Z,2.50
2023-01-17T07:43:44.127Z,2.50
2023-01-17T07:46:10.781Z,2.60
2023-01-17T07:48:37.346Z,2.60
2023-01-17T07:51:04.049Z,2.70
2023-01-17T07:53:32.913Z,2.70
2023-01-17T07:56:07.364Z,2.70
2023-01-17T07:58:35.196Z,2.80
2023-01-17T08:01:03.050Z,2.80
2023-01-17T08:03:35.778Z,2.80
2023-01-17T08:06:02.840Z,2.90
2023-01-17T08:08:29.633Z,2.80
2023-01-17T08:10:56.329Z,2.80
2023-01-17T08:13:23.237Z,2.90
2023-01-17T08:15:50.817Z,2.90
2023-01-17T08:18:18.007Z,3.00
2023-01-17T08:20:45.263Z,3.00
2023-01-17T08:23:12.201Z,3.00
2023-01-17T08:25:39.414Z,3.00
2023-01-17T08:28:06.036Z,3.00
2023-01-17T08:30:32.616Z,3.00
2023-01-17T08:33:00.300Z,3.00
2023-01-17T08:35:27.810Z,3.00
2023-01-17T08:37:55.599Z,3.10
2023-01-17T08:40:22.460Z,3.10
2023-01-17T08:42:56.837Z,3.10
2023-01-17T08:45:24.058Z,3.20
2023-01-17T08:47:50.925Z,3.20
2023-01-17T08:50:20.799Z,3.10
2023-01-17T08:52:50.940Z,3.00
2023-01-17T08:55:17.670Z,3.10
2023-01-17T08:57:44.243Z,3.10
2023-01-17T09:00:11.402Z,3.00
2023-01-17T09:02:38.006Z,3.00
2023-01-17T09:05:05.539Z,3.00
2023-01-17T09:07:34.465Z,3.10
2023-01-17T09:10:01.137Z,3.10
2023-01-17T09:12:31.021Z,3.00
2023-01-17T09:14:57.802Z,3.10
2023-01-17T09:17:24.907Z,3.10
2023-01-17T09:19:51.596Z,3.10
2023-01-17T09:22:18.217Z,3.10
2023-01-17T09:24:44.800Z,3.10
2023-01-17T09:27:11.490Z,3.10
2023-01-17T09:29:38.077Z,3.10
2023-01-17T09:32:05.027Z,3.20
2023-01-17T09:34:31.594Z,3.20
2023-01-17T09:36:58.247Z,3.20
2023-01-17T09:39:24.923Z,3.20
2023-01-17T09:42:11.669Z,3.20
2023-01-17T09:44:45.463Z,3.20
2023-01-17T09:47:18.058Z,3.20
2023-01-17T09:49:46.902Z,3.20
2023-01-17T09:52:19.591Z,3.20
2023-01-17T09:54:48.323Z,3.20
2023-01-17T09:57:23.872Z,3.20
2023-01-17T10:00:26.677Z,3.20
2023-01-17T10:03:23.893Z,3.20
2023-01-17T10:06:04.748Z,3.20
2023-01-17T10:08:46.467Z,3.20
2023-01-17T10:11:37.711Z,3.20
2023-01-17T10:14:25.197Z,3.10
2023-01-17T10:17:17.836Z,3.10
2023-01-17T10:20:15.220Z,3.00
2023-01-17T10:23:01.986Z,3.00
2023-01-17T10:25:49.048Z,3.00
2023-01-17T10:28:19.608Z,2.90
2023-01-17T10:30:49.564Z,2.90
2023-01-17T10:33:24.233Z,2.90
2023-01-17T10:35:59.291Z,3.00
2023-01-17T10:38:31.579Z,3.00
2023-01-17T10:41:02.404Z,3.10
2023-01-17T10:44:01.712Z,3.10
2023-01-17T10:46:45.390Z,3.10
2023-01-17T10:49:17.877Z,3.20
2023-01-17T10:52:10.022Z,3.20
2023-01-17T10:54:49.869Z,3.20
2023-01-17T10:57:21.580Z,3.20
2023-01-17T10:59:48.728Z,3.20
2023-01-17T11:02:27.402Z,3.30
2023-01-17T11:04:57.077Z,3.30
2023-01-17T11:07:25.802Z,3.30
2023-01-17T11:09:55.036Z,3.40
2023-01-17T11:12:41.461Z,3.50
2023-01-17T11:15:11.115Z,3.60
2023-01-17T11:18:05.714Z,3.70
2023-01-17T11:20:34.963Z,3.70
2023-01-17T11:23:22.259Z,3.70
2023-01-17T11:25:55.134Z,3.70
2023-01-17T11:28:30.266Z,3.60
2023-01-17T11:31:03.507Z,3.60
2023-01-17T11:33:49.106Z,3.50
2023-01-17T11:36:22.056Z,3.50
2023-01-17T11:38:58.721Z,3.50
2023-01-17T11:41:28.033Z,3.50
2023-01-17T11:43:59.687Z,3.50
2023-01-17T11:46:30.499Z,3.50
2023-01-17T11:49:01.883Z,3.50
2023-01-17T11:51:41.459Z,3.50
2023-01-17T11:54:24.130Z,3.60
2023-01-17T11:57:00.541Z,3.60
2023-01-17T11:59:30.170Z,3.70
2023-01-17T12:02:18.916Z,3.70
2023-01-17T12:05:08.858Z,3.70
2023-01-17T12:07:58.293Z,3.80
2023-01-17T12:10:35.465Z,3.70
2023-01-17T12:13:58.325Z,3.80
2023-01-17T12:17:02.701Z,3.70
2023-01-17T12:20:04.795Z,3.70
2023-01-17T12:22:59.556Z,3.80
2023-01-17T12:25:29.123Z,3.80
2023-01-17T12:27:59.715Z,3.80
2023-01-17T12:30:44.240Z,3.80
2023-01-17T12:33:29.650Z,3.80
2023-01-17T12:36:03.345Z,3.80
2023-01-17T12:38:38.752Z,3.80
2023-01-17T12:41:14.267Z,3.80
2023-01-17T12:43:41.481Z,3.80
2023-01-17T12:46:38.581Z,3.80
2023-01-17T12:49:50.289Z,3.80
2023-01-17T12:52:25.132Z,3.80
2023-01-17T12:54:57.400Z,3.80
2023-01-17T12:57:31.708Z,3.70
2023-01-17T13:00:22.835Z,3.70
2023-01-17T13:03:12.171Z,3.70
2023-01-17T13:05:48.725Z,3.70
2023-01-17T13:08:38.818Z,3.70
2023-01-17T13:11:25.563Z,3.70
2023-01-17T13:13:53.332Z,3.60
2023-01-17T13:16:54.652Z,3.70
2023-01-17T13:19:57.843Z,3.70
2023-01-17T13:22:27.050Z,3.70
2023-01-17T13:25:16.013Z,3.70
2023-01-17T13:28:10.243Z,3.70
2023-01-17T13:30:58.864Z,3.80
2023-01-17T13:34:06.716Z,3.80
2023-01-17T13:37:06.664Z,3.90
2023-01-17T13:39:41.917Z,3.90
2023-01-17T13:42:45.882Z,4.00
2023-01-17T13:45:40.564Z,4.00
2023-01-17T13:48:28.146Z,4.00
2023-01-17T13:50:55.827Z,3.90
2023-01-17T13:53:34.724Z,3.90
2023-01-17T13:56:19.751Z,3.90
2023-01-17T13:58:54.449Z,3.90
2023-01-17T14:01:24.171Z,3.90
2023-01-17T14:03:51.072Z,3.90
2023-01-17T14:06:35.988Z,3.90
2023-01-17T14:09:23.078Z,3.90
2023-01-17T14:12:19.059Z,3.90
2023-01-17T14:14:48.965Z,3.80
2023-01-17T14:17:28.181Z,3.80
2023-01-17T14:20:17.905Z,3.80
2023-01-17T14:22:52.094Z,3.80
2023-01-17T14:25:22.145Z,3.80
2023-01-17T14:27:51.672Z,3.80
2023-01-17T14:30:24.585Z,3.70
2023-01-17T14:33:19.562Z,3.80
2023-01-17T14:35:54.593Z,3.80
2023-01-17T14:38:31.706Z,3.80
2023-01-17T14:41:07.364Z,3.70
2023-01-17T14:43:37.692Z,3.70
2023-01-17T14:46:08.223Z,3.70
2023-01-17T14:48:39.044Z,3.80
2023-01-17T14:51:13.392Z,3.70
2023-01-17T14:53:39.981Z,3.70
2023-01-17T14:56:16.806Z,3.60
2023-01-17T14:58:46.398Z,3.50
2023-01-17T15:01:13.037Z,3.60
2023-01-17T15:03:46.777Z,3.50
2023-01-17T15:06:38.562Z,3.50
2023-01-17T15:09:16.303Z,3.40
2023-01-17T15:11:44.288Z,3.40
2023-01-17T15:14:18.669Z,3.40
2023-01-17T15:16:45.422Z,3.30
2023-01-17T15:19:14.766Z,3.40
2023-01-17T15:21:43.855Z,3.40
2023-01-17T15:24:22.516Z,3.50
2023-01-17T15:26:49.339Z,3.50
2023-01-17T15:29:35.663Z,3.60
2023-01-17T15:32:06.903Z,3.60
2023-01-17T15:34:38.674Z,3.60
2023-01-17T15:37:24.021Z,3.60
2023-01-17T15:39:50.773Z,3.70
2023-01-17T15:42:31.246Z,3.70
2023-01-17T15:45:01.770Z,3.70
2023-01-17T15:47:29.997Z,3.70
2023-01-17T15:49:56.995Z,3.70
2023-01-17T15:52:23.584Z,3.70
2023-01-17T15:54:58.635Z,3.70
2023-01-17T15:57:32.496Z,3.70
2023-01-17T16:00:20.215Z,3.60
2023-01-17T16:02:55.253Z,3.60
2023-01-17T16:05:22.421Z,3.60
2023-01-17T16:07:53.325Z,3.60
2023-01-17T16:10:22.486Z,3.60
2023-01-17T16:12:51.561Z,3.60
2023-01-17T16:15:20.148Z,3.60
2023-01-17T16:17:49.783Z,3.60
2023-01-17T16:20:25.292Z,3.60
2023-01-17T16:22:52.389Z,3.60
2023-01-17T16:25:22.661Z,3.50
2023-01-17T16:27:50.310Z,3.50
2023-01-17T16:30:19.454Z,3.60
2023-01-17T16:32:48.348Z,3.60
2023-01-17T16:35:27.542Z,3.60
2023-01-17T16:37:59.219Z,3.60
2023-01-17T16:40:29.019Z,3.60
2023-01-17T16:42:56.672Z,3.60
2023-01-17T16:45:24.735Z,3.80
2023-01-17T16:47:53.655Z,3.80
2023-01-17T16:50:23.136Z,3.70
2023-01-17T16:52:54.410Z,3.80
2023-01-17T16:55:24.210Z,3.80
2023-01-17T16:57:54.092Z,3.80
2023-01-17T17:00:22.505Z,3.80
2023-01-17T17:02:53.224Z,3.70
2023-01-17T17:05:19.993Z,3.80
2023-01-17T17:07:50.726Z,3.80
2023-01-17T17:10:19.740Z,3.80
2023-01-17T17:12:46.723Z,3.80
2023-01-17T17:15:14.202Z,3.80
2023-01-17T17:17:43.083Z,3.80
2023-01-17T17:20:12.925Z,3.90
2023-01-17T17:22:40.742Z,3.90
2023-01-17T17:25:07.559Z,3.90
2023-01-17T17:27:34.320Z,3.80
2023-01-17T17:30:00.966Z,3.80
2023-01-17T17:32:28.017Z,3.80
2023-01-17T17:34:56.179Z,3.80
2023-01-17T17:37:23.500Z,3.70
2023-01-17T17:39:50.228Z,3.70
2023-01-17T17:42:16.840Z,3.60
2023-01-17T17:44:43.403Z,3.60
2023-01-17T17:47:12.736Z,3.50
2023-01-17T17:49:39.827Z,3.50
2023-01-17T17:52:07.368Z,3.50
2023-01-17T17:54:34.786Z,3.40
2023-01-17T17:57:01.682Z,3.40
2023-01-17T17:59:28.444Z,3.40
2023-01-17T18:01:55.133Z,3.40
2023-01-17T18:04:21.977Z,3.40
2023-01-17T18:06:48.595Z,3.40
2023-01-17T18:09:15.483Z,3.40
2023-01-17T18:11:43.107Z,3.40
2023-01-17T18:14:13.628Z,3.40
2023-01-17T18:16:42.729Z,3.50
2023-01-17T18:19:20.735Z,3.40
2023-01-17T18:21:48.625Z,3.50
2023-01-17T18:24:16.894Z,3.50
2023-01-17T18:26:46.784Z,3.50
2023-01-17T18:29:16.393Z,3.60
2023-01-17T18:31:44.408Z,3.70
2023-01-17T18:34:14.084Z,3.70
2023-01-17T18:36:40.870Z,3.80
2023-01-17T18:39:16.712Z,3.70
2023-01-17T18:41:43.729Z,3.80
2023-01-17T18:44:10.800Z,3.70
2023-01-17T18:46:38.622Z,3.80
2023-01-17T18:49:05.834Z,3.70
2023-01-17T18:51:34.263Z,3.80
2023-01-17T18:54:02.768Z,3.80
2023-01-17T18:56:31.959Z,3.80
2023-01-17T18:58:58.659Z,3.80
2023-01-17T19:01:28.132Z,3.80
2023-01-17T19:04:00.088Z,3.80
2023-01-17T19:06:33.115Z,3.80
2023-01-17T19:09:01.169Z,3.80
2023-01-17T19:11:28.853Z,3.80
2023-01-17T19:13:56.009Z,3.80
2023-01-17T19:16:28.953Z,3.80
2023-01-17T19:18:57.900Z,3.80
2023-01-17T19:21:27.195Z,3.90
2023-01-17T19:23:55.085Z,3.80
2023-01-17T19:26:23.803Z,3.80
2023-01-17T19:28:51.042Z,3.80
2023-01-17T19:31:24.185Z,3.80
2023-01-17T19:33:53.636Z,3.80
2023-01-17T19:36:23.348Z,3.80
2023-01-17T19:39:03.432Z,3.80
2023-01-17T19:41:32.059Z,3.60
2023-01-17T19:44:01.031Z,3.60
2023-01-17T19:46:28.112Z,3.60
2023-01-17T19:48:56.281Z,3.60
2023-01-17T19:51:24.158Z,3.60
2023-01-17T19:53:51.361Z,3.70
2023-01-17T19:56:23.308Z,3.70
2023-01-17T19:58:50.570Z,3.80
2023-01-17T20:01:23.801Z,3.90
2023-01-17T20:03:51.422Z,3.90
2023-01-17T20:06:23.093Z,3.90
2023-01-17T20:08:50.024Z,3.90
2023-01-17T20:11:23.025Z,3.90
2023-01-17T20:13:55.777Z,3.90
2023-01-17T20:16:23.699Z,3.70
2023-01-17T20:18:50.894Z,3.60
2023-01-17T20:21:22.760Z,3.50
2023-01-17T20:23:50.529Z,3.40
2023-01-17T20:26:20.747Z,3.30
2023-01-17T20:28:49.355Z,3.30
2023-01-17T20:31:21.541Z,3.40
2023-01-17T20:33:50.352Z,3.40
2023-01-17T20:36:18.541Z,3.40
2023-01-17T20:38:45.895Z,3.40
2023-01-17T20:41:30.623Z,3.40
2023-01-17T20:43:59.401Z,3.40
2023-01-17T20:46:28.297Z,3.40
2023-01-17T20:48:57.593Z,3.30
2023-01-17T20:51:26.262Z,3.30
2023-01-17T20:53:59.598Z,3.40
2023-01-17T20:56:26.618Z,3.30
2023-01-17T20:58:54.129Z,3.20
2023-01-17T21:01:21.727Z,3.10
2023-01-17T21:03:53.740Z,3.10
2023-01-17T21:06:21.907Z,3.00
2023-01-17T21:08:49.235Z,3.00
2023-01-17T21:11:19.283Z,3.00
2023-01-17T21:13:47.176Z,3.00
2023-01-17T21:16:17.275Z,2.90
2023-01-17T21:18:47.564Z,2.80
2023-01-17T21:21:22.837Z,2.90
2023-01-17T21:23:51.321Z,2.90
2023-01-17T21:26:19.317Z,2.80
2023-01-17T21:28:46.880Z,2.80
2023-01-17T21:31:20.401Z,2.80
2023-01-17T21:33:47.717Z,2.80
2023-01-17T21:36:14.651Z,2.80
2023-01-17T21:38:41.214Z,2.80
2023-01-17T21:41:07.820Z,2.80
2023-01-17T21:43:34.432Z,2.80
2023-01-17T21:46:05.035Z,2.80
2023-01-17T21:48:31.926Z,2.90
2023-01-17T21:51:08.545Z,2.90
2023-01-17T21:53:36.509Z,2.90
2023-01-17T21:56:23.543Z,2.90
2023-01-17T21:58:56.657Z,2.90
2023-01-17T22:01:26.098Z,2.90
2023-01-17T22:04:02.568Z,2.90
2023-01-17T22:06:38.976Z,2.80
2023-01-17T22:09:05.921Z,2.80
2023-01-17T22:11:32.838Z,2.80
2023-01-17T22:13:59.575Z,2.80
2023-01-17T22:16:26.648Z,2.80
2023-01-17T22:18:53.359Z,2.80
2023-01-17T22:21:22.585Z,2.60
2023-01-17T22:23:52.021Z,2.50
2023-01-17T22:26:20.212Z,2.40
2023-01-17T22:28:46.953Z,2.50
2023-01-17T22:31:20.632Z,2.40
2023-01-17T22:33:51.821Z,2.40
2023-01-17T22:36:18.394Z,2.30
2023-01-17T22:38:45.095Z,2.40
2023-01-17T22:41:15.987Z,2.30
2023-01-17T22:43:44.838Z,2.40
2023-01-17T22:46:13.577Z,2.20
2023-01-17T22:48:41.354Z,2.10
2023-01-17T22:51:10.259Z,2.00
2023-01-17T22:53:41.936Z,2.10
2023-01-17T22:56:12.087Z,2.00
2023-01-17T22:58:42.175Z,2.00
2023-01-17T23:01:15.873Z,2.10
2023-01-17T23:03:44.505Z,2.10
2023-01-17T23:06:13.936Z,2.20
2023-01-17T23:08:42.787Z,2.20
2023-01-17T23:11:39.563Z,2.20
2023-01-17T23:14:11.321Z,2.30
2023-01-17T23:17:11.855Z,2.30
2023-01-17T23:19:47.149Z,2.20
2023-01-17T23:22:26.722Z,2.20
2023-01-17T23:24:59.266Z,2.20
2023-01-17T23:28:05.136Z,2.20
2023-01-17T23:30:40.345Z,2.20
2023-01-17T23:33:12.533Z,2.30
2023-01-17T23:35:42.235Z,2.20
2023-01-17T23:38:29.146Z,2.10
2023-01-17T23:41:32.603Z,2.20
2023-01-17T23:43:59.213Z,2.20
2023-01-17T23:46:26.666Z,2.20
2023-01-17T23:48:54.686Z,2.20
2023-01-17T23:51:21.244Z,2.40
2023-01-17T23:53:47.944Z,2.50
2023-01-17T23:56:20.689Z,2.50
2023-01-17T23:58:47.440Z,2.60
